sensor_id;sensor_type;location;lat;lon;timestamp;P1;durP1;ratioP1;P2;durP2;ratioP2
51304;SDS011;37392;50.964;6.952;2022-11-15T00:00:51;17.00;;;9.90;;
51304;SDS011;37392;50.964;6.952;2022-11-15T00:03:18;14.65;;;9.80;;
51304;SDS011;37392;50.964;6.952;2022-11-15T00:05:47;21.95;;;8.93;;
51304;SDS011;37392;50.964;6.952;2022-11-15T00:08:12;13.23;;;9.30;;
51304;SDS011;37392;50.964;6.952;2022-11-15T00:10:38;21.73;;;9.23;;
51304;SDS011;37392;50.964;6.952;2022-11-15T00:13:08;17.40;;;8.60;;
51304;SDS011;37392;50.964;6.952;2022-11-15T00:15:36;14.10;;;9.65;;
51304;SDS011;37392;50.964;6.952;2022-11-15T00:18:06;17.67;;;9.30;;
51304;SDS011;37392;50.964;6.952;2022-11-15T00:20:37;15.75;;;8.60;;
51304;SDS011;37392;50.964;6.952;2022-11-15T00:23:03;19.02;;;9.60;;
51304;SDS011;37392;50.964;6.952;2022-11-15T00:25:29;14.82;;;8.73;;
51304;SDS011;37392;50.964;6.952;2022-11-15T00:27:56;16.15;;;8.60;;
51304;SDS011;37392;50.964;6.952;2022-11-15T00:30:22;20.02;;;8.57;;
51304;SDS011;37392;50.964;6.952;2022-11-15T00:32:49;16.73;;;8.77;;
51304;SDS011;37392;50.964;6.952;2022-11-15T00:35:14;14.27;;;8.35;;
51304;SDS011;37392;50.964;6.952;2022-11-15T00:37:40;20.20;;;10.10;;
51304;SDS011;37392;50.964;6.952;2022-11-15T00:40:06;18.83;;;8.88;;
51304;SDS011;37392;50.964;6.952;2022-11-15T00:42:33;19.85;;;10.57;;
51304;SDS011;37392;50.964;6.952;2022-11-15T00:44:59;15.63;;;7.88;;
51304;SDS011;37392;50.964;6.952;2022-11-15T00:47:24;13.77;;;8.35;;
51304;SDS011;37392;50.964;6.952;2022-11-15T00:49:50;12.95;;;8.35;;
51304;SDS011;37392;50.964;6.952;2022-11-15T00:52:15;13.75;;;7.60;;
51304;SDS011;37392;50.964;6.952;2022-11-15T00:54:41;17.58;;;8.13;;
51304;SDS011;37392;50.964;6.952;2022-11-15T00:57:06;12.80;;;8.32;;
51304;SDS011;37392;50.964;6.952;2022-11-15T00:59:32;17.13;;;8.43;;
51304;SDS011;37392;50.964;6.952;2022-11-15T01:01:57;16.40;;;8.38;;
51304;SDS011;37392;50.964;6.952;2022-11-15T01:04:23;15.60;;;8.00;;
51304;SDS011;37392;50.964;6.952;2022-11-15T01:06:48;14.93;;;8.38;;
51304;SDS011;37392;50.964;6.952;2022-11-15T01:09:14;15.88;;;8.75;;
51304;SDS011;37392;50.964;6.952;2022-11-15T01:11:39;15.57;;;8.57;;
51304;SDS011;37392;50.964;6.952;2022-11-15T01:14:05;21.00;;;9.35;;
51304;SDS011;37392;50.964;6.952;2022-11-15T01:16:31;19.15;;;8.38;;
51304;SDS011;37392;50.964;6.952;2022-11-15T01:18:58;17.42;;;8.82;;
51304;SDS011;37392;50.964;6.952;2022-11-15T01:21:24;14.45;;;8.48;;
51304;SDS011;37392;50.964;6.952;2022-11-15T01:23:52;15.23;;;8.55;;
51304;SDS011;37392;50.964;6.952;2022-11-15T01:26:20;17.00;;;8.43;;
51304;SDS011;37392;50.964;6.952;2022-11-15T01:28:45;16.13;;;9.73;;
51304;SDS011;37392;50.964;6.952;2022-11-15T01:31:14;20.73;;;8.82;;
51304;SDS011;37392;50.964;6.952;2022-11-15T01:36:10;18.58;;;9.20;;
51304;SDS011;37392;50.964;6.952;2022-11-15T01:38:39;18.90;;;8.02;;
51304;SDS011;37392;50.964;6.952;2022-11-15T01:41:04;23.83;;;9.05;;
51304;SDS011;37392;50.964;6.952;2022-11-15T01:43:31;15.15;;;8.85;;
51304;SDS011;37392;50.964;6.952;2022-11-15T01:46:00;15.60;;;8.05;;
51304;SDS011;37392;50.964;6.952;2022-11-15T01:48:34;14.52;;;8.80;;
51304;SDS011;37392;50.964;6.952;2022-11-15T01:51:01;15.93;;;8.18;;
51304;SDS011;37392;50.964;6.952;2022-11-15T01:53:32;19.30;;;8.05;;
51304;SDS011;37392;50.964;6.952;2022-11-15T01:55:59;12.90;;;7.70;;
51304;SDS011;37392;50.964;6.952;2022-11-15T01:58:29;17.73;;;8.02;;
51304;SDS011;37392;50.964;6.952;2022-11-15T02:00:55;15.05;;;8.32;;
51304;SDS011;37392;50.964;6.952;2022-11-15T02:03:21;17.77;;;7.78;;
51304;SDS011;37392;50.964;6.952;2022-11-15T02:08:18;15.60;;;7.80;;
51304;SDS011;37392;50.964;6.952;2022-11-15T02:10:46;21.13;;;9.52;;
51304;SDS011;37392;50.964;6.952;2022-11-15T02:13:15;19.45;;;8.85;;
51304;SDS011;37392;50.964;6.952;2022-11-15T02:15:59;17.23;;;8.82;;
51304;SDS011;37392;50.964;6.952;2022-11-15T02:24:49;12.93;;;7.63;;
51304;SDS011;37392;50.964;6.952;2022-11-15T02:41:27;15.05;;;8.77;;
51304;SDS011;37392;50.964;6.952;2022-11-15T02:44:01;15.98;;;8.15;;
51304;SDS011;37392;50.964;6.952;2022-11-15T02:46:54;15.43;;;8.05;;
51304;SDS011;37392;50.964;6.952;2022-11-15T02:49:37;16.50;;;8.23;;
51304;SDS011;37392;50.964;6.952;2022-11-15T02:52:08;15.80;;;8.85;;
51304;SDS011;37392;50.964;6.952;2022-11-15T02:54:34;21.88;;;7.47;;
51304;SDS011;37392;50.964;6.952;2022-11-15T02:57:23;11.50;;;8.05;;
51304;SDS011;37392;50.964;6.952;2022-11-15T03:00:04;13.45;;;7.55;;
51304;SDS011;37392;50.964;6.952;2022-11-15T03:08:10;16.67;;;7.10;;
51304;SDS011;37392;50.964;6.952;2022-11-15T03:13:58;16.55;;;8.63;;
51304;SDS011;37392;50.964;6.952;2022-11-15T03:16:38;11.20;;;6.60;;
51304;SDS011;37392;50.964;6.952;2022-11-15T03:19:14;17.30;;;7.05;;
51304;SDS011;37392;50.964;6.952;2022-11-15T03:21:59;11.18;;;7.40;;
51304;SDS011;37392;50.964;6.952;2022-11-15T03:24:28;10.23;;;6.68;;
51304;SDS011;37392;50.964;6.952;2022-11-15T03:26:56;12.75;;;6.93;;
51304;SDS011;37392;50.964;6.952;2022-11-15T03:29:26;13.38;;;6.90;;
51304;SDS011;37392;50.964;6.952;2022-11-15T03:31:59;12.18;;;7.40;;
51304;SDS011;37392;50.964;6.952;2022-11-15T03:37:37;14.38;;;6.85;;
51304;SDS011;37392;50.964;6.952;2022-11-15T03:40:10;11.20;;;6.18;;
51304;SDS011;37392;50.964;6.952;2022-11-15T03:45:16;8.73;;;5.72;;
51304;SDS011;37392;50.964;6.952;2022-11-15T03:47:53;12.90;;;6.57;;
51304;SDS011;37392;50.964;6.952;2022-11-15T03:50:23;12.88;;;6.93;;
51304;SDS011;37392;50.964;6.952;2022-11-15T03:52:50;11.90;;;6.53;;
51304;SDS011;37392;50.964;6.952;2022-11-15T03:55:20;9.50;;;6.10;;
51304;SDS011;37392;50.964;6.952;2022-11-15T03:57:47;10.68;;;6.10;;
51304;SDS011;37392;50.964;6.952;2022-11-15T04:00:17;11.05;;;5.75;;
51304;SDS011;37392;50.964;6.952;2022-11-15T04:02:43;13.98;;;6.82;;
51304;SDS011;37392;50.964;6.952;2022-11-15T04:05:08;13.27;;;6.18;;
51304;SDS011;37392;50.964;6.952;2022-11-15T04:07:34;16.98;;;6.90;;
51304;SDS011;37392;50.964;6.952;2022-11-15T04:10:00;9.80;;;6.55;;
51304;SDS011;37392;50.964;6.952;2022-11-15T04:12:29;10.02;;;6.40;;
51304;SDS011;37392;50.964;6.952;2022-11-15T04:15:07;16.77;;;7.28;;
51304;SDS011;37392;50.964;6.952;2022-11-15T04:17:36;14.00;;;6.50;;
51304;SDS011;37392;50.964;6.952;2022-11-15T04:20:09;12.23;;;6.50;;
51304;SDS011;37392;50.964;6.952;2022-11-15T04:23:01;11.90;;;6.55;;
51304;SDS011;37392;50.964;6.952;2022-11-15T04:25:49;12.93;;;7.10;;
51304;SDS011;37392;50.964;6.952;2022-11-15T04:28:18;12.32;;;6.75;;
51304;SDS011;37392;50.964;6.952;2022-11-15T04:30:44;18.98;;;6.75;;
51304;SDS011;37392;50.964;6.952;2022-11-15T04:33:09;11.25;;;6.65;;
51304;SDS011;37392;50.964;6.952;2022-11-15T04:35:35;12.32;;;7.88;;
51304;SDS011;37392;50.964;6.952;2022-11-15T04:38:01;14.60;;;8.68;;
51304;SDS011;37392;50.964;6.952;2022-11-15T04:40:29;11.23;;;7.30;;
51304;SDS011;37392;50.964;6.952;2022-11-15T04:42:55;15.18;;;7.22;;
51304;SDS011;37392;50.964;6.952;2022-11-15T04:45:20;9.88;;;7.53;;
51304;SDS011;37392;50.964;6.952;2022-11-15T04:47:46;8.40;;;6.40;;
51304;SDS011;37392;50.964;6.952;2022-11-15T04:50:12;10.68;;;6.93;;
51304;SDS011;37392;50.964;6.952;2022-11-15T04:52:40;10.85;;;7.28;;
51304;SDS011;37392;50.964;6.952;2022-11-15T04:55:09;10.18;;;6.28;;
51304;SDS011;37392;50.964;6.952;2022-11-15T04:57:35;11.88;;;7.43;;
51304;SDS011;37392;50.964;6.952;2022-11-15T05:00:03;11.82;;;7.22;;
51304;SDS011;37392;50.964;6.952;2022-11-15T05:02:31;10.20;;;6.82;;
51304;SDS011;37392;50.964;6.952;2022-11-15T05:05:15;13.02;;;7.35;;
51304;SDS011;37392;50.964;6.952;2022-11-15T05:07:40;13.07;;;5.93;;
51304;SDS011;37392;50.964;6.952;2022-11-15T05:10:06;9.70;;;6.70;;
51304;SDS011;37392;50.964;6.952;2022-11-15T05:12:32;9.05;;;6.07;;
51304;SDS011;37392;50.964;6.952;2022-11-15T05:14:57;11.13;;;6.63;;
51304;SDS011;37392;50.964;6.952;2022-11-15T05:17:23;12.23;;;6.63;;
51304;SDS011;37392;50.964;6.952;2022-11-15T05:19:49;13.25;;;6.72;;
51304;SDS011;37392;50.964;6.952;2022-11-15T05:22:14;9.52;;;6.47;;
51304;SDS011;37392;50.964;6.952;2022-11-15T05:24:40;12.07;;;6.07;;
51304;SDS011;37392;50.964;6.952;2022-11-15T05:27:05;12.18;;;7.10;;
51304;SDS011;37392;50.964;6.952;2022-11-15T05:29:31;19.02;;;6.50;;
51304;SDS011;37392;50.964;6.952;2022-11-15T05:31:56;14.43;;;6.65;;
51304;SDS011;37392;50.964;6.952;2022-11-15T05:34:22;11.40;;;6.45;;
51304;SDS011;37392;50.964;6.952;2022-11-15T05:36:50;11.13;;;7.10;;
51304;SDS011;37392;50.964;6.952;2022-11-15T05:39:16;8.13;;;5.80;;
51304;SDS011;37392;50.964;6.952;2022-11-15T05:41:47;11.98;;;5.85;;
51304;SDS011;37392;50.964;6.952;2022-11-15T05:44:21;10.70;;;6.03;;
51304;SDS011;37392;50.964;6.952;2022-11-15T05:46:48;12.32;;;6.20;;
51304;SDS011;37392;50.964;6.952;2022-11-15T05:49:16;14.18;;;6.45;;
51304;SDS011;37392;50.964;6.952;2022-11-15T05:51:45;9.98;;;6.32;;
51304;SDS011;37392;50.964;6.952;2022-11-15T05:54:12;13.77;;;6.45;;
51304;SDS011;37392;50.964;6.952;2022-11-15T05:56:39;7.25;;;5.78;;
51304;SDS011;37392;50.964;6.952;2022-11-15T05:59:04;8.90;;;6.25;;
51304;SDS011;37392;50.964;6.952;2022-11-15T06:01:32;10.73;;;6.25;;
51304;SDS011;37392;50.964;6.952;2022-11-15T06:03:58;8.98;;;6.25;;
51304;SDS011;37392;50.964;6.952;2022-11-15T06:06:23;12.40;;;6.32;;
51304;SDS011;37392;50.964;6.952;2022-11-15T06:08:49;10.20;;;5.63;;
51304;SDS011;37392;50.964;6.952;2022-11-15T06:11:14;9.70;;;6.82;;
51304;SDS011;37392;50.964;6.952;2022-11-15T06:13:40;12.32;;;6.85;;
51304;SDS011;37392;50.964;6.952;2022-11-15T06:16:06;12.32;;;6.93;;
51304;SDS011;37392;50.964;6.952;2022-11-15T06:18:32;11.75;;;6.50;;
51304;SDS011;37392;50.964;6.952;2022-11-15T06:20:59;8.65;;;6.07;;
51304;SDS011;37392;50.964;6.952;2022-11-15T06:23:25;10.15;;;7.18;;
51304;SDS011;37392;50.964;6.952;2022-11-15T06:25:51;11.57;;;5.97;;
51304;SDS011;37392;50.964;6.952;2022-11-15T06:28:17;11.75;;;6.13;;
51304;SDS011;37392;50.964;6.952;2022-11-15T06:30:42;9.13;;;5.57;;
51304;SDS011;37392;50.964;6.952;2022-11-15T06:33:08;13.05;;;5.43;;
51304;SDS011;37392;50.964;6.952;2022-11-15T06:35:34;8.68;;;5.65;;
51304;SDS011;37392;50.964;6.952;2022-11-15T06:38:07;13.40;;;5.70;;
51304;SDS011;37392;50.964;6.952;2022-11-15T06:40:35;9.18;;;5.32;;
51304;SDS011;37392;50.964;6.952;2022-11-15T06:43:02;12.20;;;5.13;;
51304;SDS011;37392;50.964;6.952;2022-11-15T06:45:29;8.15;;;5.00;;
51304;SDS011;37392;50.964;6.952;2022-11-15T06:47:56;8.10;;;5.00;;
51304;SDS011;37392;50.964;6.952;2022-11-15T06:50:22;7.22;;;4.88;;
51304;SDS011;37392;50.964;6.952;2022-11-15T06:52:48;8.48;;;5.15;;
51304;SDS011;37392;50.964;6.952;2022-11-15T06:55:14;9.18;;;4.75;;
51304;SDS011;37392;50.964;6.952;2022-11-15T06:57:50;9.98;;;5.40;;
51304;SDS011;37392;50.964;6.952;2022-11-15T07:00:17;10.48;;;5.50;;
51304;SDS011;37392;50.964;6.952;2022-11-15T07:02:45;10.15;;;5.00;;
51304;SDS011;37392;50.964;6.952;2022-11-15T07:05:11;10.95;;;5.47;;
51304;SDS011;37392;50.964;6.952;2022-11-15T07:07:38;10.55;;;5.10;;
51304;SDS011;37392;50.964;6.952;2022-11-15T07:10:04;12.48;;;5.18;;
51304;SDS011;37392;50.964;6.952;2022-11-15T07:12:31;9.95;;;4.72;;
51304;SDS011;37392;50.964;6.952;2022-11-15T07:14:57;8.18;;;4.80;;
51304;SDS011;37392;50.964;6.952;2022-11-15T07:17:26;12.82;;;4.65;;
51304;SDS011;37392;50.964;6.952;2022-11-15T07:19:51;9.40;;;5.43;;
51304;SDS011;37392;50.964;6.952;2022-11-15T07:22:17;11.18;;;4.75;;
51304;SDS011;37392;50.964;6.952;2022-11-15T07:24:42;11.00;;;4.43;;
51304;SDS011;37392;50.964;6.952;2022-11-15T07:27:08;6.90;;;4.90;;
51304;SDS011;37392;50.964;6.952;2022-11-15T07:29:34;13.38;;;4.50;;
51304;SDS011;37392;50.964;6.952;2022-11-15T07:31:59;7.43;;;4.40;;
51304;SDS011;37392;50.964;6.952;2022-11-15T07:34:25;9.65;;;4.93;;
51304;SDS011;37392;50.964;6.952;2022-11-15T07:36:50;6.70;;;4.03;;
51304;SDS011;37392;50.964;6.952;2022-11-15T07:39:16;9.30;;;4.32;;
51304;SDS011;37392;50.964;6.952;2022-11-15T07:41:42;6.97;;;4.30;;
51304;SDS011;37392;50.964;6.952;2022-11-15T07:44:08;8.02;;;4.50;;
51304;SDS011;37392;50.964;6.952;2022-11-15T07:46:34;6.35;;;4.00;;
51304;SDS011;37392;50.964;6.952;2022-11-15T07:48:59;9.38;;;3.97;;
51304;SDS011;37392;50.964;6.952;2022-11-15T07:51:25;9.90;;;3.55;;
51304;SDS011;37392;50.964;6.952;2022-11-15T07:53:51;10.75;;;2.85;;
51304;SDS011;37392;50.964;6.952;2022-11-15T07:56:16;6.40;;;3.10;;
51304;SDS011;37392;50.964;6.952;2022-11-15T07:58:42;4.25;;;2.92;;
51304;SDS011;37392;50.964;6.952;2022-11-15T08:01:10;5.47;;;3.22;;
51304;SDS011;37392;50.964;6.952;2022-11-15T08:03:36;7.30;;;3.13;;
51304;SDS011;37392;50.964;6.952;2022-11-15T08:06:02;18.75;;;5.72;;
51304;SDS011;37392;50.964;6.952;2022-11-15T08:08:28;6.43;;;2.75;;
51304;SDS011;37392;50.964;6.952;2022-11-15T08:10:54;5.80;;;2.42;;
51304;SDS011;37392;50.964;6.952;2022-11-15T08:13:19;5.80;;;3.15;;
51304;SDS011;37392;50.964;6.952;2022-11-15T08:15:46;7.40;;;3.08;;
51304;SDS011;37392;50.964;6.952;2022-11-15T08:18:13;6.85;;;2.75;;
51304;SDS011;37392;50.964;6.952;2022-11-15T08:20:41;4.30;;;2.17;;
51304;SDS011;37392;50.964;6.952;2022-11-15T08:23:09;8.35;;;2.40;;
51304;SDS011;37392;50.964;6.952;2022-11-15T08:25:36;4.13;;;2.72;;
51304;SDS011;37392;50.964;6.952;2022-11-15T08:28:03;5.25;;;2.58;;
51304;SDS011;37392;50.964;6.952;2022-11-15T08:30:34;5.57;;;3.00;;
51304;SDS011;37392;50.964;6.952;2022-11-15T08:33:02;4.22;;;2.33;;
51304;SDS011;37392;50.964;6.952;2022-11-15T08:35:28;6.28;;;2.65;;
51304;SDS011;37392;50.964;6.952;2022-11-15T08:37:54;5.35;;;2.60;;
51304;SDS011;37392;50.964;6.952;2022-11-15T08:40:22;7.60;;;2.47;;
51304;SDS011;37392;50.964;6.952;2022-11-15T08:42:48;9.90;;;2.97;;
51304;SDS011;37392;50.964;6.952;2022-11-15T08:45:14;7.10;;;2.63;;
51304;SDS011;37392;50.964;6.952;2022-11-15T08:47:40;4.18;;;2.28;;
51304;SDS011;37392;50.964;6.952;2022-11-15T08:50:05;4.38;;;2.47;;
51304;SDS011;37392;50.964;6.952;2022-11-15T08:52:32;5.63;;;2.85;;
51304;SDS011;37392;50.964;6.952;2022-11-15T08:54:58;5.40;;;2.00;;
51304;SDS011;37392;50.964;6.952;2022-11-15T08:57:23;3.85;;;2.58;;
51304;SDS011;37392;50.964;6.952;2022-11-15T08:59:49;5.60;;;2.83;;
51304;SDS011;37392;50.964;6.952;2022-11-15T09:02:15;3.40;;;2.08;;
51304;SDS011;37392;50.964;6.952;2022-11-15T09:04:42;6.68;;;2.67;;
51304;SDS011;37392;50.964;6.952;2022-11-15T09:07:09;3.15;;;1.60;;
51304;SDS011;37392;50.964;6.952;2022-11-15T09:09:36;9.88;;;2.10;;
51304;SDS011;37392;50.964;6.952;2022-11-15T09:12:03;6.18;;;1.92;;
51304;SDS011;37392;50.964;6.952;2022-11-15T09:14:30;5.15;;;2.30;;
51304;SDS011;37392;50.964;6.952;2022-11-15T09:16:55;8.30;;;2.30;;
51304;SDS011;37392;50.964;6.952;2022-11-15T09:19:21;5.65;;;2.10;;
51304;SDS011;37392;50.964;6.952;2022-11-15T09:21:50;4.63;;;2.20;;
51304;SDS011;37392;50.964;6.952;2022-11-15T09:24:17;6.78;;;3.13;;
51304;SDS011;37392;50.964;6.952;2022-11-15T09:26:42;3.83;;;2.13;;
51304;SDS011;37392;50.964;6.952;2022-11-15T09:29:09;7.63;;;2.03;;
51304;SDS011;37392;50.964;6.952;2022-11-15T09:31:35;7.28;;;2.35;;
51304;SDS011;37392;50.964;6.952;2022-11-15T09:34:01;10.43;;;2.65;;
51304;SDS011;37392;50.964;6.952;2022-11-15T09:36:26;11.25;;;2.40;;
51304;SDS011;37392;50.964;6.952;2022-11-15T09:38:52;4.15;;;1.95;;
51304;SDS011;37392;50.964;6.952;2022-11-15T09:41:25;9.27;;;2.38;;
51304;SDS011;37392;50.964;6.952;2022-11-15T09:44:07;6.40;;;1.88;;
51304;SDS011;37392;50.964;6.952;2022-11-15T09:49:54;5.50;;;1.70;;
51304;SDS011;37392;50.964;6.952;2022-11-15T09:52:24;3.70;;;1.80;;
51304;SDS011;37392;50.964;6.952;2022-11-15T09:54:50;4.63;;;1.77;;
51304;SDS011;37392;50.964;6.952;2022-11-15T09:57:20;9.63;;;1.40;;
51304;SDS011;37392;50.964;6.952;2022-11-15T10:00:44;5.10;;;1.23;;
51304;SDS011;37392;50.964;6.952;2022-11-15T10:03:27;4.50;;;1.20;;
51304;SDS011;37392;50.964;6.952;2022-11-15T10:05:59;1.75;;;0.90;;
51304;SDS011;37392;50.964;6.952;2022-11-15T10:11:23;8.88;;;1.83;;
51304;SDS011;37392;50.964;6.952;2022-11-15T10:13:54;5.28;;;1.85;;
51304;SDS011;37392;50.964;6.952;2022-11-15T10:19:26;2.53;;;1.10;;
51304;SDS011;37392;50.964;6.952;2022-11-15T10:24:45;5.25;;;1.52;;
51304;SDS011;37392;50.964;6.952;2022-11-15T10:27:16;4.65;;;1.17;;
51304;SDS011;37392;50.964;6.952;2022-11-15T10:32:15;5.25;;;1.50;;
51304;SDS011;37392;50.964;6.952;2022-11-15T10:34:45;7.15;;;1.42;;
51304;SDS011;37392;50.964;6.952;2022-11-15T10:37:12;6.53;;;1.33;;
51304;SDS011;37392;50.964;6.952;2022-11-15T10:39:38;4.28;;;1.40;;
51304;SDS011;37392;50.964;6.952;2022-11-15T10:45:01;6.50;;;1.60;;
51304;SDS011;37392;50.964;6.952;2022-11-15T10:47:30;11.20;;;3.50;;
51304;SDS011;37392;50.964;6.952;2022-11-15T10:50:40;5.25;;;1.20;;
51304;SDS011;37392;50.964;6.952;2022-11-15T10:52:53;3.72;;;1.25;;
51304;SDS011;37392;50.964;6.952;2022-11-15T10:55:29;2.70;;;1.30;;
51304;SDS011;37392;50.964;6.952;2022-11-15T10:58:02;2.22;;;1.13;;
51304;SDS011;37392;50.964;6.952;2022-11-15T11:03:05;4.07;;;1.60;;
51304;SDS011;37392;50.964;6.952;2022-11-15T11:06:07;3.25;;;1.52;;
51304;SDS011;37392;50.964;6.952;2022-11-15T11:08:36;9.70;;;1.90;;
51304;SDS011;37392;50.964;6.952;2022-11-15T11:11:02;10.10;;;1.00;;
51304;SDS011;37392;50.964;6.952;2022-11-15T11:13:30;3.70;;;1.02;;
51304;SDS011;37392;50.964;6.952;2022-11-15T11:24:36;4.75;;;1.75;;
51304;SDS011;37392;50.964;6.952;2022-11-15T11:33:17;8.15;;;1.80;;
51304;SDS011;37392;50.964;6.952;2022-11-15T11:38:56;6.20;;;2.65;;
51304;SDS011;37392;50.964;6.952;2022-11-15T11:47:10;6.80;;;1.05;;
51304;SDS011;37392;50.964;6.952;2022-11-15T11:49:49;6.18;;;1.38;;
51304;SDS011;37392;50.964;6.952;2022-11-15T11:52:21;3.88;;;1.05;;
51304;SDS011;37392;50.964;6.952;2022-11-15T11:55:15;3.05;;;1.00;;
51304;SDS011;37392;50.964;6.952;2022-11-15T11:58:04;11.02;;;1.60;;
51304;SDS011;37392;50.964;6.952;2022-11-15T12:00:51;6.00;;;2.55;;
51304;SDS011;37392;50.964;6.952;2022-11-15T12:17:17;9.15;;;1.52;;
51304;SDS011;37392;50.964;6.952;2022-11-15T12:19:49;5.28;;;0.93;;
51304;SDS011;37392;50.964;6.952;2022-11-15T12:22:22;3.55;;;1.20;;
51304;SDS011;37392;50.964;6.952;2022-11-15T12:25:06;7.20;;;1.60;;
51304;SDS011;37392;50.964;6.952;2022-11-15T12:27:42;3.10;;;1.20;;
51304;SDS011;37392;50.964;6.952;2022-11-15T12:30:21;9.98;;;1.63;;
51304;SDS011;37392;50.964;6.952;2022-11-15T12:38:02;3.72;;;1.73;;
51304;SDS011;37392;50.964;6.952;2022-11-15T12:43:43;5.45;;;1.00;;
51304;SDS011;37392;50.964;6.952;2022-11-15T12:49:01;8.68;;;2.35;;
51304;SDS011;37392;50.964;6.952;2022-11-15T13:07:54;5.63;;;1.23;;
51304;SDS011;37392;50.964;6.952;2022-11-15T13:12:59;6.05;;;1.85;;
51304;SDS011;37392;50.964;6.952;2022-11-15T13:15:34;14.38;;;1.55;;
51304;SDS011;37392;50.964;6.952;2022-11-15T13:18:39;5.40;;;1.45;;
51304;SDS011;37392;50.964;6.952;2022-11-15T13:21:18;8.90;;;2.65;;
51304;SDS011;37392;50.964;6.952;2022-11-15T13:24:10;7.97;;;3.15;;
51304;SDS011;37392;50.964;6.952;2022-11-15T13:26:39;13.30;;;4.45;;
51304;SDS011;37392;50.964;6.952;2022-11-15T13:29:12;27.10;;;13.10;;
51304;SDS011;37392;50.964;6.952;2022-11-15T13:31:42;14.95;;;6.90;;
51304;SDS011;37392;50.964;6.952;2022-11-15T13:37:01;11.75;;;3.08;;
51304;SDS011;37392;50.964;6.952;2022-11-15T13:39:28;10.25;;;5.75;;
51304;SDS011;37392;50.964;6.952;2022-11-15T13:41:56;9.80;;;2.90;;
51304;SDS011;37392;50.964;6.952;2022-11-15T13:44:29;14.43;;;6.82;;
51304;SDS011;37392;50.964;6.952;2022-11-15T13:49:31;5.25;;;2.25;;
51304;SDS011;37392;50.964;6.952;2022-11-15T13:51:58;4.53;;;2.58;;
51304;SDS011;37392;50.964;6.952;2022-11-15T13:57:00;13.32;;;5.97;;
51304;SDS011;37392;50.964;6.952;2022-11-15T13:59:31;9.93;;;3.42;;
51304;SDS011;37392;50.964;6.952;2022-11-15T14:02:02;7.00;;;3.00;;
51304;SDS011;37392;50.964;6.952;2022-11-15T14:04:38;11.63;;;3.70;;
51304;SDS011;37392;50.964;6.952;2022-11-15T14:07:16;8.00;;;2.67;;
51304;SDS011;37392;50.964;6.952;2022-11-15T14:09:47;8.52;;;3.10;;
51304;SDS011;37392;50.964;6.952;2022-11-15T14:12:24;15.48;;;4.15;;
51304;SDS011;37392;50.964;6.952;2022-11-15T14:14:57;6.07;;;2.90;;
51304;SDS011;37392;50.964;6.952;2022-11-15T14:19:53;10.13;;;2.92;;
51304;SDS011;37392;50.964;6.952;2022-11-15T14:22:23;7.68;;;3.80;;
51304;SDS011;37392;50.964;6.952;2022-11-15T14:25:34;7.90;;;2.95;;
51304;SDS011;37392;50.964;6.952;2022-11-15T14:30:49;8.75;;;2.45;;
51304;SDS011;37392;50.964;6.952;2022-11-15T14:35:54;7.28;;;2.78;;
51304;SDS011;37392;50.964;6.952;2022-11-15T14:38:22;5.28;;;2.45;;
51304;SDS011;37392;50.964;6.952;2022-11-15T14:40:50;5.22;;;2.28;;
51304;SDS011;37392;50.964;6.952;2022-11-15T14:43:16;6.35;;;2.72;;
51304;SDS011;37392;50.964;6.952;2022-11-15T14:45:42;4.93;;;2.00;;
51304;SDS011;37392;50.964;6.952;2022-11-15T14:48:08;6.80;;;2.65;;
51304;SDS011;37392;50.964;6.952;2022-11-15T14:50:34;8.27;;;2.22;;
51304;SDS011;37392;50.964;6.952;2022-11-15T14:53:01;8.82;;;2.08;;
51304;SDS011;37392;50.964;6.952;2022-11-15T14:55:32;8.48;;;2.55;;
51304;SDS011;37392;50.964;6.952;2022-11-15T14:58:04;4.95;;;2.30;;
51304;SDS011;37392;50.964;6.952;2022-11-15T15:00:38;13.02;;;2.50;;
51304;SDS011;37392;50.964;6.952;2022-11-15T15:03:06;6.82;;;2.47;;
51304;SDS011;37392;50.964;6.952;2022-11-15T15:08:01;10.13;;;2.33;;
51304;SDS011;37392;50.964;6.952;2022-11-15T15:10:27;14.45;;;2.88;;
51304;SDS011;37392;50.964;6.952;2022-11-15T15:13:02;7.57;;;3.13;;
51304;SDS011;37392;50.964;6.952;2022-11-15T15:15:31;4.72;;;2.00;;
51304;SDS011;37392;50.964;6.952;2022-11-15T15:18:03;10.45;;;2.10;;
51304;SDS011;37392;50.964;6.952;2022-11-15T15:20:33;8.68;;;3.35;;
51304;SDS011;37392;50.964;6.952;2022-11-15T15:22:59;10.05;;;2.65;;
51304;SDS011;37392;50.964;6.952;2022-11-15T15:25:29;4.85;;;2.50;;
51304;SDS011;37392;50.964;6.952;2022-11-15T15:27:58;15.80;;;4.05;;
51304;SDS011;37392;50.964;6.952;2022-11-15T15:30:24;4.95;;;2.40;;
51304;SDS011;37392;50.964;6.952;2022-11-15T15:32:54;5.70;;;2.15;;
51304;SDS011;37392;50.964;6.952;2022-11-15T15:35:20;7.07;;;2.47;;
51304;SDS011;37392;50.964;6.952;2022-11-15T15:37:46;4.97;;;1.85;;
51304;SDS011;37392;50.964;6.952;2022-11-15T15:42:45;6.63;;;2.35;;
51304;SDS011;37392;50.964;6.952;2022-11-15T15:45:12;8.23;;;3.65;;
51304;SDS011;37392;50.964;6.952;2022-11-15T15:47:39;5.60;;;1.98;;
51304;SDS011;37392;50.964;6.952;2022-11-15T15:52:53;7.35;;;1.98;;
51304;SDS011;37392;50.964;6.952;2022-11-15T15:55:22;8.75;;;2.63;;
51304;SDS011;37392;50.964;6.952;2022-11-15T15:57:48;9.13;;;3.13;;
51304;SDS011;37392;50.964;6.952;2022-11-15T16:00:14;11.63;;;3.40;;
51304;SDS011;37392;50.964;6.952;2022-11-15T16:02:41;5.05;;;2.70;;
51304;SDS011;37392;50.964;6.952;2022-11-15T16:05:07;8.45;;;3.15;;
51304;SDS011;37392;50.964;6.952;2022-11-15T16:07:34;9.77;;;3.40;;
51304;SDS011;37392;50.964;6.952;2022-11-15T16:09:59;15.52;;;3.35;;
51304;SDS011;37392;50.964;6.952;2022-11-15T16:12:29;10.23;;;2.13;;
51304;SDS011;37392;50.964;6.952;2022-11-15T16:17:22;4.00;;;2.67;;
51304;SDS011;37392;50.964;6.952;2022-11-15T16:19:51;5.13;;;2.58;;
51304;SDS011;37392;50.964;6.952;2022-11-15T16:22:17;6.78;;;1.98;;
51304;SDS011;37392;50.964;6.952;2022-11-15T16:24:42;7.60;;;2.58;;
51304;SDS011;37392;50.964;6.952;2022-11-15T16:27:18;3.85;;;2.15;;
51304;SDS011;37392;50.964;6.952;2022-11-15T16:29:45;6.13;;;1.95;;
51304;SDS011;37392;50.964;6.952;2022-11-15T16:32:12;4.97;;;1.83;;
51304;SDS011;37392;50.964;6.952;2022-11-15T16:34:38;6.38;;;1.92;;
51304;SDS011;37392;50.964;6.952;2022-11-15T16:37:04;2.75;;;1.75;;
51304;SDS011;37392;50.964;6.952;2022-11-15T16:39:31;2.33;;;1.73;;
51304;SDS011;37392;50.964;6.952;2022-11-15T16:41:57;6.03;;;2.00;;
51304;SDS011;37392;50.964;6.952;2022-11-15T16:44:24;3.63;;;1.55;;
51304;SDS011;37392;50.964;6.952;2022-11-15T16:46:51;2.53;;;1.92;;
51304;SDS011;37392;50.964;6.952;2022-11-15T16:49:18;3.92;;;2.00;;
51304;SDS011;37392;50.964;6.952;2022-11-15T16:51:45;6.70;;;2.03;;
51304;SDS011;37392;50.964;6.952;2022-11-15T16:54:12;4.30;;;2.35;;
51304;SDS011;37392;50.964;6.952;2022-11-15T16:56:39;6.80;;;2.20;;
51304;SDS011;37392;50.964;6.952;2022-11-15T16:59:05;3.47;;;2.13;;
51304;SDS011;37392;50.964;6.952;2022-11-15T17:01:35;4.50;;;1.70;;
51304;SDS011;37392;50.964;6.952;2022-11-15T17:04:11;3.65;;;2.33;;
51304;SDS011;37392;50.964;6.952;2022-11-15T17:06:41;8.15;;;2.67;;
51304;SDS011;37392;50.964;6.952;2022-11-15T17:09:10;30.27;;;14.50;;
51304;SDS011;37392;50.964;6.952;2022-11-15T17:11:41;6.35;;;2.92;;
51304;SDS011;37392;50.964;6.952;2022-11-15T17:14:07;11.43;;;4.88;;
51304;SDS011;37392;50.964;6.952;2022-11-15T17:16:36;17.08;;;7.40;;
51304;SDS011;37392;50.964;6.952;2022-11-15T17:19:06;19.23;;;7.10;;
51304;SDS011;37392;50.964;6.952;2022-11-15T17:21:40;28.60;;;12.45;;
51304;SDS011;37392;50.964;6.952;2022-11-15T17:24:07;9.18;;;5.95;;
51304;SDS011;37392;50.964;6.952;2022-11-15T17:26:32;15.57;;;6.30;;